01:20 Langlaufen Seefeld Skating
Ort Giessenbach Datum 29.12.2016 17:44:04
Kategorie Langlaufen
Distanz 20,51 Kilometer Steigung 133,0 Meter Gefälle -129,0 Meter
Gesamt Zeit 01:20:17 Aktiv 01:19:33 Pause 00:00:44
Durchs. Tempo 00:03:52 min/km Tempo max. 00:02:54 min/km Tempo min. 00:07:00 min/km
Kalorien 0 Durchs. HF 128 BPM HF max. 144 BPM
Wetter -6 °C Clear Min/Max: -7,1 °C/-5,6 °C; Druck: 1038,1 mbar; Rel. Feuchte: 85,0%; Taupunkt: -8,1 °C; Windgeschwindigkeit: 3,1 km/h; Niederschlag: 0,0mm
Ausrüstung Salomon - Equipe 10 SK
Salomon - RS Carbon
Notiz Seefeld Skating Nachtloipe ... nicht kalt, recht gute Loipe - locker mit Helli ... garmin connect
Splits
Distanz (km) Gesamt Zeit Split Zeit Split Tempo Split Tempo Höhenprofil (m)
1,00 00:03:47 00:03:47 00:03:47 15,9 0,05
2,00 00:07:21 00:03:34 00:03:35 16,8 -0,06
3,00 00:11:16 00:03:54 00:03:55 15,3 0,00
4,00 00:15:21 00:04:05 00:04:05 14,7 10,00
5,00 00:19:07 00:03:45 00:03:46 15,9 -4,42
6,00 00:22:56 00:03:48 00:03:48 15,8 -5,58
7,00 00:26:58 00:04:02 00:04:02 14,9 9,95
8,00 00:30:47 00:03:49 00:03:49 15,7 -3,61
9,00 00:34:32 00:03:44 00:03:44 16,0 -6,33
10,00 00:38:28 00:03:55 00:03:56 15,3 9,67
11,00 00:42:23 00:03:55 00:03:55 15,3 -2,62
12,00 00:46:04 00:03:41 00:03:41 16,3 -7,05
13,00 00:50:05 00:04:00 00:04:00 15,0 9,42
14,00 00:53:57 00:03:52 00:03:52 15,5 -1,71
15,00 00:57:49 00:03:51 00:03:52 15,5 -7,71
16,00 01:01:49 00:04:00 00:04:00 15,0 9,07
17,00 01:05:39 00:03:50 00:03:50 15,6 -0,87
18,00 01:09:22 00:03:43 00:03:44 16,1 -8,20
19,00 01:13:31 00:04:08 00:04:09 14,5 8,64
20,00 01:17:25 00:03:54 00:03:54 15,4 -0,05
20,55 01:19:33 00:02:07 00:03:52 15,5 -8,55